Time;durP1;ratioP1;P1;durP2;ratioP2;P2;SDS_P1;SDS_P2;PMS_P1;PMS_P2;Temp;Humidity;BMP_temperature;BMP_pressure;BME280_temperature;BME280_humidity;BME280_pressure;Samples;Min_cycle;Max_cycle;Signal;HPM_P1;HPM_P2
2022/07/20 00:00:09;;;;;;;8.90;5.13;;;;;;;24.99;43.84;101096.63;4894994;29;20028;-74
2022/07/20 00:02:34;;;;;;;9.30;4.80;;;;;;;24.92;46.08;101095.06;4895213;29;20029;-74
2022/07/20 00:05:00;;;;;;;7.57;4.30;;;;;;;24.90;44.62;101093.72;4895101;29;20037;-74
2022/07/20 00:07:25;;;;;;;11.70;5.72;;;;;;;24.85;45.25;101089.13;4877917;29;20619;-74
2022/07/20 00:12:34;;;;;;;8.63;5.40;;;;;;;24.62;46.13;101090.66;4894973;29;20067;-74
2022/07/20 00:15:00;;;;;;;7.00;5.22;;;;;;;24.53;48.68;101097.03;4894771;29;20028;-74
2022/07/20 00:17:25;;;;;;;11.65;5.88;;;;;;;24.42;50.79;101088.91;4894968;29;20037;-74
2022/07/20 00:19:51;;;;;;;8.82;5.15;;;;;;;24.33;49.59;101089.78;4894790;29;20033;-75
2022/07/20 00:22:16;;;;;;;9.70;5.03;;;;;;;24.21;50.74;101093.69;4894668;29;20039;-74
2022/07/20 00:24:42;;;;;;;11.13;5.93;;;;;;;24.15;54.05;101083.88;4877577;29;20067;-74
2022/07/20 00:27:08;;;;;;;12.68;5.38;;;;;;;24.09;48.18;101090.47;4877586;29;20084;-74
2022/07/20 00:29:33;;;;;;;8.75;6.10;;;;;;;24.05;45.34;101092.13;4894586;29;20045;-74
2022/07/20 00:31:58;;;;;;;8.68;5.15;;;;;;;24.01;48.75;101091.88;4894448;29;20056;-74
2022/07/20 00:34:24;;;;;;;7.70;5.90;;;;;;;23.98;51.57;101089.72;4894436;29;20040;-74
2022/07/20 00:36:49;;;;;;;8.88;5.68;;;;;;;23.97;49.36;101081.81;4894050;29;20029;-74
2022/07/20 00:39:14;;;;;;;10.50;6.05;;;;;;;23.87;48.91;101088.16;4894118;29;20092;-74
2022/07/20 00:41:40;;;;;;;8.40;5.18;;;;;;;23.72;48.76;101085.50;4894421;29;20088;-74
2022/07/20 00:44:07;;;;;;;7.22;4.80;;;;;;;23.63;51.43;101085.19;4894512;29;20511;-74
2022/07/20 00:46:41;;;;;;;10.40;5.10;;;;;;;23.56;51.48;101093.69;4894384;29;20445;-74
2022/07/20 00:49:08;;;;;;;7.95;5.47;;;;;;;23.46;49.70;101088.28;4894254;29;20116;-74
2022/07/20 00:51:35;;;;;;;11.93;6.35;;;;;;;23.37;51.48;101088.03;4894403;29;20032;-74
2022/07/20 00:54:01;;;;;;;11.20;6.50;;;;;;;23.27;51.06;101081.81;4894347;29;20079;-74
2022/07/20 00:56:26;;;;;;;11.52;5.63;;;;;;;23.24;55.07;101093.22;4862156;29;20052;-74
2022/07/20 00:58:52;;;;;;;10.35;6.10;;;;;;;23.18;52.90;101089.69;4894061;29;20036;-74
2022/07/20 01:01:18;;;;;;;8.00;5.05;;;;;;;23.17;57.78;101094.34;4894135;29;20032;-74
2022/07/20 01:03:44;;;;;;;9.20;6.22;;;;;;;23.15;58.04;101095.69;4894331;29;20128;-74
2022/07/20 01:06:11;;;;;;;11.43;6.50;;;;;;;23.14;51.12;101100.34;4894072;29;20033;-74
2022/07/20 01:08:36;;;;;;;13.85;6.43;;;;;;;23.23;45.83;101132.44;4893943;29;20076;-74
2022/07/20 01:11:02;;;;;;;16.80;6.93;;;;;;;23.38;45.04;101106.00;4894902;29;20486;-74
2022/07/20 01:13:27;;;;;;;15.63;8.15;;;;;;;23.42;45.94;101087.19;4893962;29;20103;-74
2022/07/20 01:15:53;;;;;;;14.20;6.35;;;;;;;23.44;44.73;101082.28;4894155;29;20449;-74
2022/07/20 01:18:18;;;;;;;12.07;6.63;;;;;;;23.44;46.99;101093.19;4877387;29;20040;-74
2022/07/20 01:20:46;;;;;;;23.58;7.82;;;;;;;23.45;47.94;101110.31;4862454;29;20036;-74
2022/07/20 01:23:12;;;;;;;9.60;5.65;;;;;;;23.32;48.27;101119.91;4893769;29;20079;-74
2022/07/20 01:25:38;;;;;;;12.13;6.88;;;;;;;23.22;47.71;101115.28;4877237;29;20104;-74
2022/07/20 01:28:08;;;;;;;10.75;5.60;;;;;;;23.10;50.57;101101.97;4893382;29;20032;-74
2022/07/20 01:30:34;;;;;;;7.57;4.97;;;;;;;23.10;48.11;101117.47;4893959;29;20075;-74
2022/07/20 01:32:59;;;;;;;9.27;5.45;;;;;;;23.16;46.93;101128.09;4893876;29;20040;-74
2022/07/20 01:35:25;;;;;;;8.90;5.70;;;;;;;23.25;45.03;101136.50;4893846;29;20071;-74
2022/07/20 01:37:50;;;;;;;11.45;5.85;;;;;;;23.14;51.88;101115.84;4893949;29;20076;-74
2022/07/20 01:40:15;;;;;;;10.73;5.63;;;;;;;23.03;46.73;101134.09;4893076;29;20048;-74
2022/07/20 01:42:41;;;;;;;11.75;6.88;;;;;;;23.05;45.93;101126.44;4876912;29;20572;-74
2022/07/20 01:45:06;;;;;;;9.18;5.47;;;;;;;23.10;47.58;101131.88;4894544;29;20036;-73
2022/07/20 01:47:32;;;;;;;8.90;5.85;;;;;;;23.17;44.99;101127.00;4897321;29;20028;-73
2022/07/20 01:49:57;;;;;;;8.95;5.63;;;;;;;23.10;50.61;101120.19;4897307;29;20492;-74
2022/07/20 01:52:23;;;;;;;10.13;5.53;;;;;;;23.13;47.34;101134.09;4897436;29;20036;-73
2022/07/20 01:54:48;;;;;;;12.93;6.88;;;;;;;23.08;49.39;101125.09;4897660;29;20028;-73
2022/07/20 01:57:13;;;;;;;12.00;5.85;;;;;;;22.95;51.34;101118.25;4897286;29;20037;-74
2022/07/20 01:59:39;;;;;;;9.50;5.80;;;;;;;22.82;52.95;101121.53;4897306;29;20043;-74
2022/07/20 02:02:04;;;;;;;10.70;5.47;;;;;;;22.63;53.46;101116.63;4897435;29;20060;-74
2022/07/20 02:04:29;;;;;;;11.38;5.93;;;;;;;22.47;53.69;101107.66;4897165;29;20120;-74
2022/07/20 02:06:55;;;;;;;9.82;5.70;;;;;;;22.35;54.44;101098.94;4897248;29;20025;-74
2022/07/20 02:09:20;;;;;;;7.28;5.10;;;;;;;22.34;55.01;101104.66;4880278;29;20061;-74
2022/07/20 02:11:45;;;;;;;8.07;5.30;;;;;;;22.17;53.09;101104.88;4897275;29;20067;-74
2022/07/20 02:14:11;;;;;;;8.07;5.63;;;;;;;22.00;54.17;101105.88;4896945;29;20401;-74
2022/07/20 02:16:36;;;;;;;11.25;5.80;;;;;;;21.96;55.48;101104.00;4897006;29;20032;-74
2022/07/20 02:19:02;;;;;;;23.55;6.55;;;;;;;21.88;54.76;101108.03;4896942;29;20107;-74
2022/07/20 02:21:29;;;;;;;10.55;6.00;;;;;;;21.87;57.30;101100.94;4896755;29;20032;-74
2022/07/20 02:23:54;;;;;;;8.90;5.25;;;;;;;21.79;57.02;101107.72;4864374;29;20482;-74
2022/07/20 02:26:20;;;;;;;9.43;6.00;;;;;;;21.77;57.78;101107.19;4896875;29;20123;-73
2022/07/20 02:28:45;;;;;;;11.90;7.10;;;;;;;21.75;52.54;101105.81;4868612;29;20041;-73
2022/07/20 02:31:11;;;;;;;12.45;6.90;;;;;;;21.79;53.38;101128.63;4896047;29;20560;-74
2022/07/20 02:33:36;;;;;;;12.88;7.15;;;;;;;21.87;49.90;101136.25;4896782;29;20064;-73
2022/07/20 02:36:02;;;;;;;11.23;6.00;;;;;;;22.02;48.75;101136.31;4896625;29;20841;-74
2022/07/20 02:38:28;;;;;;;13.10;6.10;;;;;;;22.16;49.58;101123.03;4879774;29;20033;-73
2022/07/20 02:40:53;;;;;;;10.02;6.32;;;;;;;22.26;47.34;101130.44;4879248;29;20043;-74
2022/07/20 02:43:19;;;;;;;10.68;6.20;;;;;;;22.37;47.16;101131.28;4896012;29;20032;-74
2022/07/20 02:45:45;;;;;;;10.13;5.70;;;;;;;22.44;47.11;101140.00;4879464;29;20080;-74
2022/07/20 02:48:10;;;;;;;9.05;5.50;;;;;;;22.47;46.67;101131.31;4879692;29;20107;-74
2022/07/20 02:50:40;;;;;;;12.77;6.18;;;;;;;22.50;46.90;101141.63;4879191;29;20033;-74
2022/07/20 02:53:07;;;;;;;14.02;6.55;;;;;;;22.54;47.58;101135.38;4896385;29;20029;-74
2022/07/20 02:55:32;;;;;;;12.63;6.72;;;;;;;22.51;47.59;101129.69;4896302;29;20053;-74
2022/07/20 02:57:58;;;;;;;13.07;7.30;;;;;;;22.53;47.82;101139.22;4878353;29;20040;-74
2022/07/20 03:00:24;;;;;;;15.75;8.20;;;;;;;22.50;48.40;101141.63;4896240;29;20512;-74
2022/07/20 03:02:50;;;;;;;16.38;7.50;;;;;;;22.49;48.67;101148.97;4895653;29;20036;-74
2022/07/20 03:05:16;;;;;;;18.00;8.52;;;;;;;22.52;49.43;101147.63;4896138;29;20048;-73
2022/07/20 03:07:41;;;;;;;15.63;8.57;;;;;;;22.47;49.83;101155.75;4895982;29;20059;-74
2022/07/20 03:10:08;;;;;;;15.02;9.30;;;;;;;22.47;50.39;101150.31;4896118;29;20153;-74
2022/07/20 03:12:33;;;;;;;14.95;9.45;;;;;;;22.41;50.56;101143.25;4896077;29;20041;-74
2022/07/20 03:14:59;;;;;;;14.23;8.88;;;;;;;22.43;51.11;101155.50;4896002;29;20059;-74
2022/07/20 03:17:24;;;;;;;16.20;10.55;;;;;;;22.37;51.91;101142.97;4879036;29;20016;-74
2022/07/20 03:19:50;;;;;;;16.10;10.25;;;;;;;22.40;52.54;101164.19;4879134;29;20536;-74
2022/07/20 03:22:15;;;;;;;15.73;9.27;;;;;;;22.38;52.73;101173.69;4895843;29;20461;-74
2022/07/20 03:24:41;;;;;;;16.35;9.90;;;;;;;22.33;53.31;101160.91;4895783;29;20031;-74
2022/07/20 03:27:06;;;;;;;20.45;10.57;;;;;;;22.32;54.10;101148.38;4895631;29;20079;-74
2022/07/20 03:29:32;;;;;;;23.25;13.50;;;;;;;22.30;54.61;101162.25;4895699;29;20040;-73
2022/07/20 03:31:57;;;;;;;20.75;12.90;;;;;;;22.26;55.22;101158.44;4895419;29;20064;-74
2022/07/20 03:34:23;;;;;;;22.05;13.65;;;;;;;22.22;56.53;101160.06;4878453;29;20041;-74
2022/07/20 03:36:48;;;;;;;22.73;13.02;;;;;;;22.17;56.68;101170.06;4896838;29;20040;-71
2022/07/20 03:39:15;;;;;;;20.08;12.63;;;;;;;22.14;57.39;101179.56;4895260;29;20502;-71
2022/07/20 03:41:40;;;;;;;20.70;13.45;;;;;;;22.16;57.61;101192.88;4895224;29;20036;-68
2022/07/20 03:44:06;;;;;;;23.88;14.00;;;;;;;22.14;57.62;101201.31;4894615;29;20032;-71
2022/07/20 03:46:31;;;;;;;23.70;14.13;;;;;;;22.12;57.84;101205.38;4878612;29;20032;-70
2022/07/20 03:48:57;;;;;;;20.55;13.93;;;;;;;22.03;58.37;101199.59;4895251;29;20036;-71
2022/07/20 03:51:22;;;;;;;21.42;13.70;;;;;;;22.04;59.16;101217.56;4895231;29;20052;-71
2022/07/20 03:53:47;;;;;;;23.35;13.10;;;;;;;22.02;59.29;101215.09;4895329;29;20051;-71
2022/07/20 03:56:13;;;;;;;24.20;14.48;;;;;;;22.00;59.91;101211.00;4895080;29;20041;-71
2022/07/20 03:58:38;;;;;;;23.52;13.60;;;;;;;21.99;61.08;101228.38;4895144;29;20035;-71
2022/07/20 04:01:03;;;;;;;24.80;15.65;;;;;;;21.94;61.10;101229.19;4895088;29;20028;-71
2022/07/20 04:03:29;;;;;;;25.50;16.27;;;;;;;21.96;62.06;101242.50;4895200;29;20032;-71
2022/07/20 04:05:54;;;;;;;25.00;16.98;;;;;;;21.95;62.49;101244.38;4895042;29;20028;-71
2022/07/20 04:08:19;;;;;;;25.10;16.83;;;;;;;21.91;62.97;101242.47;4894489;29;20060;-71
2022/07/20 04:10:45;;;;;;;26.30;18.17;;;;;;;21.91;63.77;101266.91;4877771;29;20035;-71
2022/07/20 04:13:10;;;;;;;27.23;19.27;;;;;;;21.83;64.40;101250.03;4894716;29;20040;-71
2022/07/20 04:15:35;;;;;;;30.88;19.75;;;;;;;21.81;65.62;101256.81;4894962;29;20039;-71
2022/07/20 04:18:01;;;;;;;32.70;20.75;;;;;;;21.76;66.07;101254.06;4894799;29;20028;-71
2022/07/20 04:20:26;;;;;;;33.25;19.10;;;;;;;21.81;66.60;101265.75;4862561;29;20063;-71
2022/07/20 04:22:51;;;;;;;28.90;20.55;;;;;;;21.81;67.63;101270.38;4894608;29;20044;-71
2022/07/20 04:25:18;;;;;;;31.70;21.80;;;;;;;21.78;67.61;101273.63;4894882;29;20515;-70
2022/07/20 04:27:44;;;;;;;33.72;20.70;;;;;;;21.79;67.90;101276.06;4877888;29;20120;-71
2022/07/20 04:30:10;;;;;;;33.53;21.80;;;;;;;21.80;68.13;101276.91;4894592;29;20123;-71
2022/07/20 04:32:35;;;;;;;30.80;23.27;;;;;;;21.80;68.07;101277.72;4894639;29;20047;-71
2022/07/20 04:35:01;;;;;;;33.58;22.52;;;;;;;21.84;68.34;101278.00;4893851;29;20044;-71
2022/07/20 04:37:26;;;;;;;35.63;23.65;;;;;;;21.84;68.24;101281.53;4894426;29;20039;-71
2022/07/20 04:39:51;;;;;;;31.70;22.83;;;;;;;21.87;68.15;101277.47;4894552;29;20556;-71
2022/07/20 04:42:17;;;;;;;32.20;22.42;;;;;;;21.94;68.51;101278.06;4877613;29;20381;-71
2022/07/20 04:44:43;;;;;;;36.05;23.52;;;;;;;22.00;68.09;101281.63;4894029;29;20107;-71
2022/07/20 04:47:08;;;;;;;30.73;22.90;;;;;;;22.06;67.70;101278.69;4893919;29;20032;-71
2022/07/20 04:49:33;;;;;;;32.10;23.00;;;;;;;22.18;67.96;101288.53;4894295;29;20048;-71
2022/07/20 04:51:59;;;;;;;33.53;21.73;;;;;;;22.24;67.55;101301.91;4894188;29;20041;-71
2022/07/20 04:54:24;;;;;;;36.20;24.23;;;;;;;22.30;67.34;101297.31;4894182;29;20040;-70
2022/07/20 04:56:50;;;;;;;30.80;22.73;;;;;;;22.37;67.70;101300.59;4894280;29;20507;-71
2022/07/20 04:59:15;;;;;;;31.02;21.33;;;;;;;22.43;67.57;101305.00;4894248;29;20445;-71
2022/07/20 05:01:40;;;;;;;30.98;22.20;;;;;;;22.51;66.97;101323.50;4893961;29;20392;-70
2022/07/20 05:04:07;;;;;;;33.58;23.27;;;;;;;22.60;67.04;101321.09;4894542;29;20039;-70
2022/07/20 05:06:33;;;;;;;37.40;23.00;;;;;;;22.66;66.67;101320.03;4894098;29;20161;-70
2022/07/20 05:08:58;;;;;;;28.88;21.20;;;;;;;22.70;66.17;101312.97;4877204;29;20540;-70
2022/07/20 05:11:26;;;;;;;32.60;21.95;;;;;;;22.69;66.21;101324.13;4877570;29;20041;-71
2022/07/20 05:13:52;;;;;;;25.70;19.52;;;;;;;22.61;66.65;101302.88;4894142;29;20040;-70
2022/07/20 05:16:17;;;;;;;29.52;19.85;;;;;;;22.71;66.77;101314.59;4893757;29;20037;-70
2022/07/20 05:18:43;;;;;;;32.35;22.92;;;;;;;22.68;66.23;101304.25;4893654;29;20100;-71
2022/07/20 05:21:08;;;;;;;30.90;22.17;;;;;;;22.63;66.26;101306.97;4896516;29;20040;-71
2022/07/20 05:23:34;;;;;;;28.00;21.95;;;;;;;22.66;66.06;101301.00;4897846;29;20512;-70
2022/07/20 05:25:59;;;;;;;31.30;22.10;;;;;;;22.70;66.24;101296.66;4881483;29;20045;-71
2022/07/20 05:28:24;;;;;;;31.58;23.33;;;;;;;22.75;65.96;101295.88;4897921;29;20465;-70
2022/07/20 05:30:51;;;;;;;29.33;23.02;;;;;;;22.81;66.01;101310.28;4881115;29;20044;-70
2022/07/20 05:33:16;;;;;;;32.13;23.33;;;;;;;22.83;65.82;101305.41;4897641;29;20029;-70
2022/07/20 05:35:41;;;;;;;31.40;20.55;;;;;;;22.86;65.83;101321.19;4897732;29;20130;-71
2022/07/20 05:38:07;;;;;;;30.30;21.88;;;;;;;22.86;66.02;101315.75;4879730;29;20056;-71
2022/07/20 05:40:32;;;;;;;31.70;22.65;;;;;;;22.83;65.80;101310.84;4897553;29;20552;-70
2022/07/20 05:42:58;;;;;;;30.90;22.63;;;;;;;22.94;65.71;101342.44;4897905;29;20032;-71
2022/07/20 05:45:23;;;;;;;30.80;21.30;;;;;;;22.99;65.52;101350.63;4897508;29;20036;-70
2022/07/20 05:47:49;;;;;;;33.67;23.65;;;;;;;23.04;65.26;101358.81;4897198;29;20037;-71
2022/07/20 05:50:14;;;;;;;26.98;19.67;;;;;;;23.01;64.70;101350.38;4897511;29;20392;-70
2022/07/20 05:52:39;;;;;;;29.00;20.30;;;;;;;23.05;64.70;101362.34;4897544;29;20037;-71
2022/07/20 05:55:05;;;;;;;30.40;20.80;;;;;;;23.11;64.69;101375.72;4897394;29;20034;-70
2022/07/20 05:57:31;;;;;;;29.10;20.60;;;;;;;23.10;65.13;101370.53;4880626;29;20029;-71
2022/07/20 05:59:56;;;;;;;27.30;21.25;;;;;;;23.13;64.37;101381.72;4896900;29;20033;-71
2022/07/20 06:02:21;;;;;;;26.60;17.85;;;;;;;23.17;64.96;101387.41;4897610;29;20029;-71
2022/07/20 06:04:47;;;;;;;27.95;18.25;;;;;;;23.14;63.31;101374.34;4897059;29;20059;-71
2022/07/20 06:07:12;;;;;;;27.83;17.25;;;;;;;23.21;63.18;101395.84;4897031;29;20076;-71
2022/07/20 06:09:37;;;;;;;25.77;16.48;;;;;;;23.19;62.67;101380.63;4897081;29;20104;-71
2022/07/20 06:12:03;;;;;;;23.98;15.93;;;;;;;23.27;62.70;101402.97;4897169;29;20036;-71
2022/07/20 06:14:28;;;;;;;27.45;14.90;;;;;;;23.30;62.01;101408.69;4896892;29;20033;-70
2022/07/20 06:16:54;;;;;;;23.98;15.55;;;;;;;23.31;62.14;101410.31;4897156;29;20028;-71
2022/07/20 06:19:19;;;;;;;30.55;15.80;;;;;;;23.33;62.17;101416.31;4896653;29;20032;-71
2022/07/20 06:21:45;;;;;;;25.52;16.23;;;;;;;23.36;61.93;101428.56;4896952;29;20039;-71
2022/07/20 06:24:10;;;;;;;25.83;15.65;;;;;;;23.37;61.95;101430.19;4896950;29;20449;-71
2022/07/20 06:26:36;;;;;;;28.45;16.92;;;;;;;23.38;62.20;101429.13;4896777;29;20028;-71
2022/07/20 06:29:01;;;;;;;23.23;15.05;;;;;;;23.44;62.05;101429.94;4896941;29;20044;-70
2022/07/20 06:31:26;;;;;;;21.38;14.82;;;;;;;23.45;61.50;101446.03;4879274;29;20058;-70
2022/07/20 06:33:52;;;;;;;20.95;14.15;;;;;;;23.45;61.50;101456.91;4879804;29;20143;-70
2022/07/20 06:36:18;;;;;;;23.60;14.65;;;;;;;23.47;61.89;101470.25;4896519;29;20028;-70
2022/07/20 06:38:44;;;;;;;22.73;16.80;;;;;;;23.54;61.48;101474.34;4896614;29;20384;-71
2022/07/20 06:41:09;;;;;;;23.60;13.90;;;;;;;23.59;61.18;101477.09;4896062;29;20045;-70
2022/07/20 06:43:35;;;;;;;21.90;13.15;;;;;;;23.67;61.39;101480.38;4896381;29;20040;-69
2022/07/20 06:46:00;;;;;;;23.58;14.70;;;;;;;23.68;60.50;101465.66;4896249;29;20115;-69
2022/07/20 06:48:25;;;;;;;20.25;13.27;;;;;;;23.76;60.47;101481.50;4896072;29;20503;-70
2022/07/20 06:50:51;;;;;;;23.63;13.65;;;;;;;23.65;60.71;101494.25;4879072;29;20094;-69
2022/07/20 06:53:16;;;;;;;23.27;13.90;;;;;;;23.62;60.99;101514.69;4879382;29;20048;-74
2022/07/20 06:55:42;;;;;;;22.08;12.88;;;;;;;23.54;61.00;101507.03;4896402;29;20043;-74
2022/07/20 06:58:08;;;;;;;20.13;12.00;;;;;;;23.71;61.36;101523.16;4896154;29;20120;-74
2022/07/20 07:00:33;;;;;;;22.85;12.93;;;;;;;23.79;60.87;101532.75;4896141;29;20044;-74
2022/07/20 07:02:59;;;;;;;25.10;12.63;;;;;;;23.87;60.73;101532.22;4878904;29;20037;-75
2022/07/20 07:05:24;;;;;;;20.02;12.75;;;;;;;23.82;61.02;101524.84;4896044;29;20496;-75
2022/07/20 07:07:49;;;;;;;18.45;12.43;;;;;;;23.74;61.07;101511.75;4895619;29;20063;-75
2022/07/20 07:10:15;;;;;;;36.05;12.13;;;;;;;23.77;61.25;101521.28;4895048;29;20033;-76
2022/07/20 07:12:40;;;;;;;22.73;11.98;;;;;;;23.87;60.94;101526.78;4895042;29;20044;-76
2022/07/20 07:15:06;;;;;;;23.10;13.15;;;;;;;23.89;61.01;101523.75;4894962;29;20050;-75
2022/07/20 07:17:32;;;;;;;24.20;12.32;;;;;;;24.04;61.76;101531.97;4895224;29;20048;-74
2022/07/20 07:19:58;;;;;;;20.55;13.75;;;;;;;24.11;60.67;101542.63;4894554;29;20128;-74
2022/07/20 07:22:27;;;;;;;19.02;12.05;;;;;;;24.09;60.23;101540.16;4894499;29;20036;-74
2022/07/20 07:24:53;;;;;;;18.10;12.73;;;;;;;24.15;60.13;101552.69;4894437;29;20095;-74
2022/07/20 07:27:19;;;;;;;21.65;12.02;;;;;;;24.20;60.40;101544.50;4894362;29;20047;-74
2022/07/20 07:29:44;;;;;;;21.25;13.20;;;;;;;24.31;59.99;101545.34;4894370;29;20036;-73
2022/07/20 07:32:09;;;;;;;21.23;13.43;;;;;;;24.38;59.72;101553.25;4894630;29;20036;-73
2022/07/20 07:34:35;;;;;;;19.70;12.32;;;;;;;24.49;59.78;101565.81;4894669;29;20039;-73
2022/07/20 07:37:00;;;;;;;18.77;11.63;;;;;;;24.52;60.26;101556.28;4894636;29;20028;-75
2022/07/20 07:39:25;;;;;;;19.25;12.35;;;;;;;24.59;59.62;101570.47;4894641;29;20024;-75
2022/07/20 07:41:51;;;;;;;21.63;13.00;;;;;;;24.52;58.08;101572.66;4894520;29;20553;-75
2022/07/20 07:44:16;;;;;;;20.65;13.07;;;;;;;24.52;59.33;101581.63;4892994;29;20039;-73
2022/07/20 07:46:41;;;;;;;19.67;12.20;;;;;;;24.54;58.72;101582.19;4894317;29;20896;-73
2022/07/20 07:49:07;;;;;;;23.23;12.70;;;;;;;24.61;58.16;101599.13;4877538;29;20051;-70
2022/07/20 07:51:32;;;;;;;22.48;12.50;;;;;;;24.67;59.21;101600.75;4894017;29;20033;-70
2022/07/20 07:53:58;;;;;;;20.88;12.90;;;;;;;24.80;58.01;101612.19;4894327;29;20048;-70
2022/07/20 07:56:23;;;;;;;18.73;11.15;;;;;;;24.73;57.56;101609.72;4894416;29;20092;-70
2022/07/20 07:58:49;;;;;;;18.88;12.43;;;;;;;24.79;58.30;101610.56;4894281;29;20107;-70
2022/07/20 08:01:15;;;;;;;19.48;11.77;;;;;;;24.76;57.74;101608.38;4894327;29;20033;-70
2022/07/20 08:03:40;;;;;;;20.40;11.52;;;;;;;24.78;57.32;101611.66;4877579;29;20060;-70
2022/07/20 08:06:06;;;;;;;20.27;12.63;;;;;;;24.74;57.54;101607.84;4894066;29;20050;-70
2022/07/20 08:08:32;;;;;;;21.73;11.77;;;;;;;24.78;58.42;101598.81;4855971;29;1132372;-70
2022/07/20 08:10:58;;;;;;;21.90;12.75;;;;;;;24.87;58.30;101588.19;4894791;29;20043;-70
2022/07/20 08:13:23;;;;;;;25.70;12.00;;;;;;;25.00;57.48;101570.44;4895005;29;20464;-70
2022/07/20 08:15:49;;;;;;;22.10;13.70;;;;;;;25.39;56.92;101576.09;4894666;29;20037;-70
2022/07/20 08:18:14;;;;;;;20.17;13.07;;;;;;;26.41;54.11;101574.72;4895063;29;20492;-70
2022/07/20 08:20:40;;;;;;;22.25;11.82;;;;;;;28.08;50.07;101562.16;4877994;29;20040;-72
2022/07/20 08:23:06;;;;;;;21.38;12.05;;;;;;;29.48;46.00;101563.00;4894594;29;20024;-71
2022/07/20 08:25:32;;;;;;;20.98;11.05;;;;;;;30.74;42.67;101584.28;4878182;29;20366;-71
2022/07/20 08:28:09;;;;;;;21.60;10.75;;;;;;;32.12;42.26;101586.97;4894321;29;20064;-72
2022/07/20 08:30:34;;;;;;;19.13;10.63;;;;;;;32.91;38.47;101583.78;4894625;29;20036;-72
2022/07/20 08:33:00;;;;;;;18.50;11.23;;;;;;;33.39;37.33;101588.13;4894638;29;20420;-72
2022/07/20 08:35:25;;;;;;;18.67;11.35;;;;;;;33.79;36.60;101579.41;4877629;29;20075;-72
2022/07/20 08:37:50;;;;;;;18.23;9.85;;;;;;;34.24;36.15;101584.28;4894527;29;20029;-72
2022/07/20 08:40:16;;;;;;;14.85;10.95;;;;;;;33.99;34.80;101588.06;4894280;29;20064;-72
2022/07/20 08:42:42;;;;;;;17.60;11.27;;;;;;;33.44;35.10;101578.03;4894171;29;20455;-72
2022/07/20 08:45:09;;;;;;;16.35;10.35;;;;;;;33.18;36.42;101590.84;4877147;29;20064;-71
2022/07/20 08:47:39;;;;;;;20.95;10.15;;;;;;;33.28;36.39;101586.88;4894635;29;20437;-72
2022/07/20 08:50:05;;;;;;;19.05;10.48;;;;;;;33.06;36.47;101590.72;4894323;29;20381;-72
2022/07/20 08:52:30;;;;;;;16.35;10.48;;;;;;;33.24;36.10;101594.22;4894140;29;20037;-72
2022/07/20 08:54:56;;;;;;;17.33;10.20;;;;;;;33.09;36.09;101598.38;4893895;29;20037;-72
2022/07/20 08:57:21;;;;;;;13.70;9.52;;;;;;;32.90;36.74;101600.66;4894226;29;20032;-72
2022/07/20 08:59:48;;;;;;;16.55;9.85;;;;;;;33.14;35.64;101611.19;4894214;29;20038;-72
2022/07/20 09:02:15;;;;;;;13.35;9.15;;;;;;;33.50;35.57;101587.72;4894277;29;20029;-71
2022/07/20 09:04:50;;;;;;;18.75;10.38;;;;;;;34.00;35.60;101565.56;4894158;29;20037;-72
2022/07/20 09:07:16;;;;;;;15.38;9.35;;;;;;;33.55;34.49;101546.88;4893800;29;20039;-72
2022/07/20 09:09:41;;;;;;;14.80;9.07;;;;;;;32.13;37.01;101539.75;4894063;29;20408;-72
2022/07/20 09:12:07;;;;;;;12.98;8.90;;;;;;;31.24;39.40;101558.41;4894034;29;20044;-71
2022/07/20 09:14:48;;;;;;;17.27;10.45;;;;;;;30.52;40.45;101574.13;4893943;29;20036;-71
2022/07/20 09:17:19;;;;;;;16.00;9.70;;;;;;;29.87;42.67;101577.31;4894212;29;20036;-72
2022/07/20 09:19:59;;;;;;;16.30;9.27;;;;;;;29.53;42.44;101603.31;4893972;29;20028;-71
2022/07/20 09:22:32;;;;;;;17.20;9.82;;;;;;;29.20;43.45;101622.63;4894106;29;20033;-71
2022/07/20 09:25:09;;;;;;;18.05;10.25;;;;;;;28.75;44.09;101627.00;4893950;29;20037;-71
2022/07/20 09:27:35;;;;;;;17.92;11.27;;;;;;;28.59;43.91;101635.50;4893895;29;20025;-71
2022/07/20 09:30:12;;;;;;;16.42;9.38;;;;;;;28.41;45.17;101636.31;4893998;29;20055;-72
2022/07/20 09:32:55;;;;;;;19.30;11.40;;;;;;;28.45;44.74;101639.28;4877372;29;20044;-71
2022/07/20 09:35:23;;;;;;;17.85;10.55;;;;;;;28.30;44.74;101637.56;4893415;29;20040;-70
2022/07/20 09:37:49;;;;;;;14.65;8.68;;;;;;;28.39;45.17;101630.28;4876744;29;20536;-71
2022/07/20 09:40:15;;;;;;;16.90;9.70;;;;;;;28.31;44.89;101639.19;4893829;29;20036;-70
2022/07/20 09:42:42;;;;;;;24.95;10.68;;;;;;;28.21;45.27;101645.63;4893796;29;20381;-71
2022/07/20 09:45:20;;;;;;;15.38;8.73;;;;;;;28.21;45.82;101636.59;4893754;29;20043;-71
2022/07/20 09:48:01;;;;;;;19.65;10.43;;;;;;;28.15;46.02;101641.34;4893331;29;20029;-70
2022/07/20 09:50:29;;;;;;;23.75;10.27;;;;;;;27.93;45.83;101644.69;4893857;29;20119;-71
2022/07/20 09:52:55;;;;;;;18.27;11.10;;;;;;;27.73;47.08;101637.50;4877400;29;20040;-70
2022/07/20 09:55:21;;;;;;;19.23;10.30;;;;;;;27.72;48.06;101622.97;4893506;29;20096;-70
2022/07/20 09:57:49;;;;;;;16.13;9.07;;;;;;;27.72;48.11;101624.91;4891155;29;20025;-70
2022/07/20 10:00:15;;;;;;;18.08;10.43;;;;;;;27.62;47.45;101627.78;4889254;29;20097;-70
2022/07/20 10:02:41;;;;;;;16.63;9.82;;;;;;;27.44;48.10;101610.16;4889716;29;20507;-69
2022/07/20 10:05:07;;;;;;;13.88;9.32;;;;;;;27.17;47.90;101608.81;4889992;29;20564;-70
2022/07/20 10:07:33;;;;;;;20.50;10.10;;;;;;;26.95;48.17;101616.69;4892176;29;20052;-69
2022/07/20 10:09:59;;;;;;;16.95;9.07;;;;;;;26.73;48.79;101639.06;4893333;29;20129;-70
2022/07/20 10:12:25;;;;;;;20.83;9.70;;;;;;;26.69;49.43;101657.13;4893244;29;20113;-69
2022/07/20 10:14:52;;;;;;;12.95;8.88;;;;;;;26.73;51.07;101683.66;4897138;29;20422;-72
2022/07/20 10:17:17;;;;;;;15.82;9.48;;;;;;;26.74;49.51;101679.00;4897254;29;20037;-71
2022/07/20 10:19:46;;;;;;;14.65;10.55;;;;;;;26.67;49.71;101671.94;4896909;29;20036;-71
2022/07/20 10:22:12;;;;;;;16.83;9.65;;;;;;;26.66;50.34;101667.56;4897050;29;20499;-72
2022/07/20 10:24:39;;;;;;;15.95;9.00;;;;;;;26.81;49.11;101668.56;4896850;29;20033;-72
2022/07/20 10:27:07;;;;;;;14.30;8.40;;;;;;;27.22;49.03;101677.25;4896905;29;20039;-72
2022/07/20 10:29:34;;;;;;;14.27;9.48;;;;;;;27.69;49.55;101672.06;4896753;29;20044;-73
2022/07/20 10:32:12;;;;;;;12.52;7.78;;;;;;;27.81;47.75;101664.28;4896837;29;20036;-72
2022/07/20 10:34:50;;;;;;;11.38;8.38;;;;;;;27.87;46.90;101676.00;4896788;29;20036;-72
2022/07/20 10:37:41;;;;;;;14.55;8.85;;;;;;;27.84;47.25;101671.09;4896520;29;20057;-72
2022/07/20 10:40:06;;;;;;;14.23;9.43;;;;;;;27.73;47.36;101664.91;4896877;29;20024;-72
2022/07/20 10:42:33;;;;;;;17.73;8.82;;;;;;;27.74;47.98;101644.59;4896634;29;20039;-72
2022/07/20 10:45:19;;;;;;;18.85;9.98;;;;;;;27.82;47.41;101641.22;4896793;29;20119;-72
2022/07/20 10:47:58;;;;;;;14.70;8.00;;;;;;;27.90;47.42;101628.78;4895973;29;20036;-73
2022/07/20 10:50:37;;;;;;;12.57;7.50;;;;;;;28.07;47.35;101628.31;4896241;29;20036;-72
2022/07/20 10:53:12;;;;;;;16.42;6.65;;;;;;;28.08;45.69;101628.00;4896355;29;20033;-72
2022/07/20 10:55:37;;;;;;;13.60;8.23;;;;;;;27.93;46.24;101626.28;4896303;29;20089;-72
2022/07/20 10:58:04;;;;;;;14.25;9.35;;;;;;;27.80;47.92;101621.50;4895877;29;20441;-72
2022/07/20 11:00:35;;;;;;;10.98;7.18;;;;;;;27.97;46.80;101624.56;4895881;29;20050;-72
2022/07/20 11:03:03;;;;;;;9.90;7.07;;;;;;;28.17;47.39;101639.94;4891999;29;20024;-70
2022/07/20 11:05:28;;;;;;;15.18;7.20;;;;;;;28.22;46.23;101650.03;4891634;29;20036;-71
2022/07/20 11:07:54;;;;;;;12.02;6.82;;;;;;;28.25;47.14;101645.88;4891496;29;20060;-70
2022/07/20 11:10:25;;;;;;;24.67;9.20;;;;;;;28.49;47.99;101657.59;4892200;29;20096;-70
2022/07/20 11:12:59;;;;;;;16.50;8.73;;;;;;;28.67;47.01;101649.66;4892099;29;20037;-71